Terminal Aerodrome Forecast
Issued by NWS Austin/San Antonio, TX

Home | Current Version | Previous Version | Text Only | Print | Product List | Glossary On
Versions: 1 2 3 4 5 6 7 8 9 10 11 12 13 14 15 16 17 18 19 20 21 22 23 24
000
FTUS44 KEWX 041731
TAFAUS
TAF
KAUS 041731Z 0418/0524 VRB03KT 4SM BR SCT006 OVC012
      TEMPO 0418/0422 2SM -RA BR
     FM042200 02010G20KT 3SM BR OVC010
     FM050000 01025G35KT P6SM OVC007
      TEMPO 0500/0504 3SM -RA
     FM051000 36025G35KT P6SM OVC015
      TEMPO 0510/0514 5SM -FZRA
     FM052100 36012KT P6SM OVC100=

USA.gov is the U.S. government's official web portal to all federal, state and local government web resources and services.